createdAt,value
2023-05-04T00:00:31.586Z,9.55
2023-05-04T00:03:33.567Z,9.52
2023-05-04T00:06:35.486Z,9.49
2023-05-04T00:09:37.736Z,9.44
2023-05-04T00:12:40.313Z,9.40
2023-05-04T00:15:42.458Z,9.40
2023-05-04T00:18:44.370Z,9.40
2023-05-04T00:21:46.587Z,9.41
2023-05-04T00:24:48.601Z,9.40
2023-05-04T00:27:50.532Z,9.40
2023-05-04T00:30:56.290Z,9.38
2023-05-04T00:33:58.461Z,9.38
2023-05-04T00:37:01.166Z,9.39
2023-05-04T00:40:03.325Z,9.39
2023-05-04T00:43:05.496Z,9.35
2023-05-04T00:46:07.969Z,9.34
2023-05-04T00:49:11.264Z,9.33
2023-05-04T00:52:14.726Z,9.29
2023-05-04T00:55:18.192Z,9.28
2023-05-04T00:58:21.261Z,9.27
2023-05-04T01:01:24.857Z,9.23
2023-05-04T01:04:26.987Z,9.22
2023-05-04T01:07:48.073Z,9.24
2023-05-04T01:10:57.004Z,9.27
2023-05-04T01:14:01.476Z,9.30
2023-05-04T01:17:06.782Z,9.28
2023-05-04T01:20:09.664Z,9.28
2023-05-04T01:23:11.769Z,9.25
2023-05-04T01:26:29.118Z,9.27
2023-05-04T01:29:56.021Z,9.25
2023-05-04T01:33:02.493Z,9.23
2023-05-04T01:36:04.631Z,9.16
2023-05-04T01:39:06.923Z,9.10
2023-05-04T01:42:08.859Z,9.06
2023-05-04T01:45:11.414Z,9.03
2023-05-04T01:48:13.317Z,8.98
2023-05-04T01:51:15.188Z,8.90
2023-05-04T01:54:17.121Z,8.83
2023-05-04T01:57:19.058Z,8.75
2023-05-04T02:00:21.116Z,8.69
2023-05-04T02:03:23.175Z,8.63
2023-05-04T02:06:25.531Z,8.58
2023-05-04T02:09:27.415Z,8.53
2023-05-04T02:12:29.445Z,8.49
2023-05-04T02:15:31.626Z,8.43
2023-05-04T02:18:33.553Z,8.40
2023-05-04T02:21:35.920Z,8.35
2023-05-04T02:24:40.388Z,8.29
2023-05-04T02:27:42.578Z,8.24
2023-05-04T02:30:44.570Z,8.19
2023-05-04T02:33:46.517Z,8.16
2023-05-04T02:36:49.592Z,8.16
2023-05-04T02:39:51.513Z,8.16
2023-05-04T02:42:53.548Z,8.15
2023-05-04T02:45:55.476Z,8.16
2023-05-04T02:48:57.416Z,8.18
2023-05-04T02:51:59.274Z,8.25
2023-05-04T02:55:03.321Z,8.29
2023-05-04T02:58:05.222Z,8.35
2023-05-04T03:01:07.225Z,8.40
2023-05-04T03:04:09.223Z,8.47
2023-05-04T03:07:11.807Z,8.53
2023-05-04T03:10:13.772Z,8.56
2023-05-04T03:13:16.721Z,8.64
2023-05-04T03:16:19.103Z,8.71
2023-05-04T03:19:22.179Z,8.83
2023-05-04T03:22:24.177Z,8.96
2023-05-04T03:25:26.317Z,9.13
2023-05-04T03:28:29.052Z,9.34
2023-05-04T03:31:31.454Z,9.55
2023-05-04T03:34:33.730Z,9.77
2023-05-04T03:37:38.934Z,9.97
2023-05-04T03:40:40.901Z,10.20
2023-05-04T03:43:42.865Z,10.39
2023-05-04T03:46:46.014Z,10.60
2023-05-04T03:49:47.991Z,10.77
2023-05-04T03:52:50.310Z,10.99
2023-05-04T03:55:54.605Z,11.31
2023-05-04T03:58:57.083Z,11.66
2023-05-04T04:02:03.316Z,11.94
2023-05-04T04:05:06.617Z,12.18
2023-05-04T04:08:10.219Z,12.32
2023-05-04T04:11:12.166Z,12.35
2023-05-04T04:14:13.989Z,12.45
2023-05-04T04:17:15.850Z,12.49
2023-05-04T04:20:17.761Z,12.55
2023-05-04T04:23:19.758Z,12.61
2023-05-04T04:26:21.717Z,12.63
2023-05-04T04:29:23.601Z,12.70
2023-05-04T04:32:25.601Z,12.74
2023-05-04T04:35:27.659Z,12.78
2023-05-04T04:38:29.667Z,12.87
2023-05-04T04:41:32.257Z,13.03
2023-05-04T04:44:34.890Z,13.20
2023-05-04T04:47:36.820Z,13.58
2023-05-04T04:50:40.029Z,13.86
2023-05-04T04:53:41.953Z,13.98
2023-05-04T04:56:45.084Z,14.06
2023-05-04T04:59:47.326Z,14.19
2023-05-04T05:02:49.299Z,14.45
2023-05-04T05:05:51.733Z,14.80
2023-05-04T05:08:53.622Z,15.11
2023-05-04T05:11:55.474Z,15.16
2023-05-04T05:14:57.448Z,15.54
2023-05-04T05:17:59.338Z,15.88
2023-05-04T05:21:01.457Z,16.22
2023-05-04T05:24:03.418Z,16.44
2023-05-04T05:27:05.346Z,16.86
2023-05-04T05:30:07.996Z,17.09
2023-05-04T05:33:10.387Z,17.34
2023-05-04T05:36:12.322Z,17.50
2023-05-04T05:39:14.229Z,17.70
2023-05-04T05:42:16.459Z,17.98
2023-05-04T05:45:19.353Z,18.35
2023-05-04T05:48:21.201Z,18.56
2023-05-04T05:51:23.147Z,18.82
2023-05-04T05:54:25.382Z,18.97
2023-05-04T05:57:27.606Z,19.10
2023-05-04T06:00:29.601Z,19.08
2023-05-04T06:03:31.665Z,19.30
2023-05-04T06:06:33.762Z,19.56
2023-05-04T06:09:35.640Z,19.81
2023-05-04T06:12:37.559Z,20.08
2023-05-04T06:15:39.477Z,20.39
2023-05-04T06:18:41.354Z,20.72
2023-05-04T06:21:43.301Z,20.66
2023-05-04T06:24:45.138Z,20.85
2023-05-04T06:27:47.477Z,20.92
2023-05-04T06:30:49.443Z,21.05
2023-05-04T06:33:51.419Z,21.16
2023-05-04T06:36:53.333Z,21.46
2023-05-04T06:39:55.233Z,21.71
2023-05-04T06:42:57.128Z,21.72
2023-05-04T06:46:03.348Z,21.85
2023-05-04T06:49:05.664Z,22.06
2023-05-04T06:52:07.620Z,22.20
2023-05-04T06:55:09.694Z,22.28
2023-05-04T06:58:11.750Z,22.52
2023-05-04T07:01:15.308Z,22.33
2023-05-04T07:04:23.328Z,22.43
2023-05-04T07:07:25.354Z,22.71
2023-05-04T07:10:28.629Z,22.90
2023-05-04T07:13:30.521Z,22.96
2023-05-04T07:16:33.190Z,22.87
2023-05-04T07:19:35.091Z,22.98
2023-05-04T07:22:36.984Z,22.92
2023-05-04T07:25:38.848Z,23.00
2023-05-04T07:28:44.016Z,23.02
2023-05-04T07:31:46.263Z,23.07
2023-05-04T07:34:48.290Z,23.48
2023-05-04T07:37:50.800Z,23.43
2023-05-04T07:40:56.325Z,23.55
2023-05-04T07:43:58.261Z,23.96
2023-05-04T07:47:01.935Z,23.93
2023-05-04T07:50:05.010Z,23.98
2023-05-04T07:53:08.109Z,23.65
2023-05-04T07:56:12.418Z,23.89
2023-05-04T07:59:17.306Z,23.95
2023-05-04T08:02:19.152Z,23.59
2023-05-04T08:05:21.342Z,23.59
2023-05-04T08:08:23.098Z,23.41
2023-05-04T08:11:24.953Z,23.59
2023-05-04T08:14:26.843Z,23.69
2023-05-04T08:17:29.783Z,23.73
2023-05-04T08:20:32.630Z,23.90
2023-05-04T08:23:34.860Z,24.10
2023-05-04T08:26:39.697Z,24.19
2023-05-04T08:29:41.853Z,24.42
2023-05-04T08:32:43.867Z,24.53
2023-05-04T08:35:46.169Z,24.73
2023-05-04T08:38:48.159Z,24.75
2023-05-04T08:41:50.126Z,24.85
2023-05-04T08:44:52.088Z,24.81
2023-05-04T08:47:54.226Z,25.00
2023-05-04T08:50:57.858Z,24.85
2023-05-04T08:54:00.850Z,24.80
2023-05-04T08:57:04.852Z,24.75
2023-05-04T09:00:08.804Z,25.16
2023-05-04T09:03:12.187Z,25.34
2023-05-04T09:06:15.270Z,24.97
2023-05-04T09:09:17.425Z,25.23
2023-05-04T09:12:19.527Z,25.44
2023-05-04T09:15:22.033Z,25.66
2023-05-04T09:18:24.070Z,25.36
2023-05-04T09:21:30.696Z,25.76
2023-05-04T09:24:32.599Z,26.02
2023-05-04T09:27:34.565Z,25.90
2023-05-04T09:30:36.497Z,25.96
2023-05-04T09:33:38.422Z,25.96
2023-05-04T09:36:40.996Z,26.23
2023-05-04T09:39:57.622Z,26.24
2023-05-04T09:43:01.129Z,26.47
2023-05-04T09:46:03.397Z,26.70
2023-05-04T09:49:05.417Z,26.62
2023-05-04T09:52:07.253Z,26.49
2023-05-04T09:55:13.617Z,26.40
2023-05-04T09:58:16.894Z,26.32
2023-05-04T10:01:18.947Z,26.25
2023-05-04T10:04:21.062Z,26.35
2023-05-04T10:07:23.419Z,26.35
2023-05-04T10:10:25.786Z,26.40
2023-05-04T10:13:28.210Z,26.38
2023-05-04T10:16:57.253Z,26.43
2023-05-04T10:20:17.417Z,26.42
2023-05-04T10:23:34.144Z,26.02
2023-05-04T10:27:04.138Z,25.88
2023-05-04T10:30:07.807Z,25.81
2023-05-04T10:33:10.023Z,25.43
2023-05-04T10:36:11.959Z,25.38
2023-05-04T10:39:21.369Z,25.47
2023-05-04T10:42:23.317Z,25.47
2023-05-04T10:45:34.523Z,25.38
2023-05-04T10:48:36.654Z,25.45
2023-05-04T10:51:48.667Z,25.36
2023-05-04T10:55:02.344Z,25.20
2023-05-04T10:58:04.368Z,25.27
2023-05-04T11:01:11.769Z,25.39
2023-05-04T11:04:21.611Z,25.57
2023-05-04T11:07:37.622Z,25.84
2023-05-04T11:10:40.027Z,25.90
2023-05-04T11:13:49.099Z,26.09
2023-05-04T11:16:51.160Z,26.15
2023-05-04T11:19:53.280Z,26.06
2023-05-04T11:22:55.094Z,25.31
2023-05-04T11:25:57.555Z,25.40
2023-05-04T11:28:59.531Z,25.31
2023-05-04T11:32:01.454Z,25.33
2023-05-04T11:35:05.104Z,25.76
2023-05-04T11:38:07.733Z,26.11
2023-05-04T11:41:09.948Z,26.02
2023-05-04T11:44:12.201Z,26.02
2023-05-04T11:47:14.956Z,26.09
2023-05-04T11:50:19.550Z,26.14
2023-05-04T11:53:23.282Z,25.92
2023-05-04T11:56:25.450Z,26.11
2023-05-04T11:59:27.387Z,25.93
2023-05-04T12:02:29.325Z,25.93
2023-05-04T12:05:31.858Z,25.82
2023-05-04T12:08:35.540Z,25.81
2023-05-04T12:11:38.511Z,25.98
2023-05-04T12:14:47.711Z,25.98
2023-05-04T12:17:49.625Z,26.17
2023-05-04T12:20:51.538Z,26.16
2023-05-04T12:23:53.504Z,26.29
2023-05-04T12:26:55.511Z,26.27
2023-05-04T12:33:36.174Z,26.21
2023-05-04T12:36:38.052Z,26.24
2023-05-04T12:39:39.993Z,26.26
2023-05-04T12:42:42.464Z,26.30
2023-05-04T12:45:44.412Z,26.29
2023-05-04T12:48:46.286Z,26.28
2023-05-04T12:51:48.253Z,26.37
2023-05-04T12:54:50.029Z,26.28
2023-05-04T12:57:52.091Z,26.06
2023-05-04T13:00:54.166Z,25.78
2023-05-04T13:03:56.095Z,25.45
2023-05-04T13:06:57.808Z,25.88
2023-05-04T13:09:59.888Z,25.88
2023-05-04T13:13:01.777Z,25.72
2023-05-04T13:16:03.619Z,25.60
2023-05-04T13:19:05.517Z,25.63
2023-05-04T13:22:07.403Z,25.81
2023-05-04T13:25:09.494Z,25.86
2023-05-04T13:28:11.514Z,25.76
2023-05-04T13:31:13.576Z,25.41
2023-05-04T13:34:15.461Z,25.62
2023-05-04T13:37:18.756Z,25.87
2023-05-04T13:40:20.694Z,25.89
2023-05-04T13:43:22.488Z,25.93
2023-05-04T13:46:24.489Z,25.88
2023-05-04T13:49:26.447Z,25.60
2023-05-04T13:52:28.287Z,25.19
2023-05-04T13:55:30.238Z,25.17
2023-05-04T13:58:32.055Z,25.19
2023-05-04T14:01:33.980Z,25.25
2023-05-04T14:04:38.815Z,25.26
2023-05-04T14:07:41.655Z,25.39
2023-05-04T14:10:43.541Z,25.47
2023-05-04T14:13:45.812Z,25.62
2023-05-04T14:16:48.018Z,25.80
2023-05-04T14:19:49.895Z,25.93
2023-05-04T14:22:51.805Z,25.96
2023-05-04T14:25:55.842Z,26.08
2023-05-04T14:28:57.805Z,25.90
2023-05-04T14:31:59.567Z,25.80
2023-05-04T14:35:08.598Z,25.79
2023-05-04T14:38:11.117Z,25.64
2023-05-04T14:41:14.371Z,25.72
2023-05-04T14:44:16.586Z,25.75
2023-05-04T14:47:19.597Z,25.73
2023-05-04T14:50:21.911Z,25.72
2023-05-04T14:53:24.223Z,25.54
2023-05-04T14:56:27.580Z,25.52
2023-05-04T14:59:29.420Z,25.45
2023-05-04T15:02:31.368Z,25.51
2023-05-04T15:05:33.135Z,25.46
2023-05-04T15:08:35.001Z,25.42
2023-05-04T15:11:36.838Z,25.17
2023-05-04T15:14:38.739Z,24.98
2023-05-04T15:17:40.616Z,24.75
2023-05-04T15:20:42.535Z,24.61
2023-05-04T15:23:44.302Z,24.28
2023-05-04T15:26:46.442Z,24.07
2023-05-04T15:29:48.310Z,23.77
2023-05-04T15:32:50.175Z,23.47
2023-05-04T15:35:52.059Z,23.28
2023-05-04T15:38:54.098Z,23.05
2023-05-04T15:41:55.863Z,22.85
2023-05-04T15:44:57.817Z,22.82
2023-05-04T15:48:00.328Z,22.69
2023-05-04T15:51:02.336Z,22.60
2023-05-04T15:54:04.315Z,22.51
2023-05-04T15:57:06.252Z,22.36
2023-05-04T16:00:09.156Z,22.28
2023-05-04T16:03:11.436Z,22.22
2023-05-04T16:06:13.335Z,22.09
2023-05-04T16:09:20.280Z,21.99
2023-05-04T16:12:22.263Z,21.90
2023-05-04T16:15:24.223Z,21.79
2023-05-04T16:18:26.154Z,21.69
2023-05-04T16:21:28.110Z,21.59
2023-05-04T16:24:29.904Z,21.43
2023-05-04T16:27:31.828Z,21.31
2023-05-04T16:30:34.433Z,21.15
2023-05-04T16:33:36.450Z,21.00
2023-05-04T16:36:38.362Z,20.75
2023-05-04T16:39:40.167Z,20.61
2023-05-04T16:42:43.112Z,20.42
2023-05-04T16:45:45.057Z,20.26
2023-05-04T16:48:46.997Z,20.09
2023-05-04T16:51:48.918Z,19.92
2023-05-04T16:54:50.881Z,19.77
2023-05-04T16:57:56.553Z,19.63
2023-05-04T17:00:58.559Z,19.49
2023-05-04T17:04:00.498Z,19.34
2023-05-04T17:07:02.725Z,19.18
2023-05-04T17:10:05.155Z,19.00
2023-05-04T17:13:07.683Z,18.82
2023-05-04T17:16:09.994Z,18.71
2023-05-04T17:19:11.825Z,18.53
2023-05-04T17:22:13.666Z,18.40
2023-05-04T17:25:15.682Z,18.25
2023-05-04T17:28:17.521Z,18.15
2023-05-04T17:31:19.407Z,17.99
2023-05-04T17:34:21.372Z,17.89
2023-05-04T17:37:23.966Z,17.79
2023-05-04T17:40:27.760Z,17.67
2023-05-04T17:43:30.430Z,17.59
2023-05-04T17:46:32.379Z,17.54
2023-05-04T17:49:34.259Z,17.40
2023-05-04T17:52:36.570Z,17.34
2023-05-04T17:55:38.524Z,17.24
2023-05-04T17:58:40.665Z,17.17
2023-05-04T18:01:42.657Z,17.09
2023-05-04T18:04:44.605Z,16.97
2023-05-04T18:07:46.662Z,16.93
2023-05-04T18:10:48.721Z,16.83
2023-05-04T18:13:51.534Z,16.71
2023-05-04T18:16:53.437Z,16.58
2023-05-04T18:19:58.196Z,16.49
2023-05-04T18:23:00.238Z,16.42
2023-05-04T18:26:02.120Z,16.36
2023-05-04T18:29:17.411Z,16.33
2023-05-04T18:32:21.090Z,16.28
2023-05-04T18:35:24.099Z,16.22
2023-05-04T18:38:26.642Z,16.15
2023-05-04T18:41:28.731Z,16.09
2023-05-04T18:44:30.623Z,16.07
2023-05-04T18:47:32.793Z,16.03
2023-05-04T18:50:34.737Z,15.98
2023-05-04T18:53:36.658Z,15.91
2023-05-04T18:56:38.596Z,15.85
2023-05-04T18:59:41.019Z,15.81
2023-05-04T19:02:42.965Z,15.74
2023-05-04T19:05:44.887Z,15.70
2023-05-04T19:08:46.762Z,15.64
2023-05-04T19:11:48.703Z,15.56
2023-05-04T19:14:51.270Z,15.53
2023-05-04T19:17:53.185Z,15.39
2023-05-04T19:20:55.033Z,15.36
2023-05-04T19:23:56.898Z,15.32
2023-05-04T19:27:00.366Z,15.28
2023-05-04T19:30:02.189Z,15.26
2023-05-04T19:33:05.698Z,15.23
2023-05-04T19:36:07.792Z,15.20
2023-05-04T19:39:13.385Z,15.15
2023-05-04T19:42:15.288Z,15.09
2023-05-04T19:45:17.383Z,15.06
2023-05-04T19:48:21.517Z,15.00
2023-05-04T19:51:23.444Z,14.98
2023-05-04T19:54:25.342Z,14.95
2023-05-04T19:57:27.988Z,14.92
2023-05-04T20:00:29.825Z,14.87
2023-05-04T20:03:31.782Z,14.88
2023-05-04T20:06:33.878Z,14.90
2023-05-04T20:09:35.907Z,14.92
2023-05-04T20:12:37.751Z,14.90
2023-05-04T20:15:39.716Z,14.88
2023-05-04T20:18:41.795Z,14.86
2023-05-04T20:21:43.662Z,14.81
2023-05-04T20:24:45.589Z,14.74
2023-05-04T20:27:48.759Z,14.72
2023-05-04T20:30:50.868Z,14.68
2023-05-04T20:33:52.774Z,14.67
2023-05-04T20:36:54.658Z,14.64
2023-05-04T20:39:56.668Z,14.62
2023-05-04T20:42:58.582Z,14.58
2023-05-04T20:46:00.604Z,14.52
2023-05-04T20:49:03.015Z,14.51
2023-05-04T20:52:05.244Z,14.48
2023-05-04T20:55:08.048Z,14.45
2023-05-04T20:58:10.015Z,14.43
2023-05-04T21:01:11.976Z,14.40
2023-05-04T21:04:15.066Z,14.36
2023-05-04T21:07:17.041Z,14.33
2023-05-04T21:10:19.916Z,14.28
2023-05-04T21:13:21.824Z,14.25
2023-05-04T22:45:59.175Z,12.97
2023-05-04T22:49:01.894Z,12.98
2023-05-04T22:52:05.815Z,12.94
2023-05-04T22:55:10.239Z,12.94
2023-05-04T22:58:17.341Z,12.93
2023-05-04T23:02:24.920Z,12.90
2023-05-04T23:05:45.729Z,12.84
2023-05-04T23:08:47.629Z,12.82
2023-05-04T23:11:49.624Z,12.78
2023-05-04T23:14:52.510Z,12.76
2023-05-04T23:17:54.422Z,12.73
2023-05-04T23:20:56.274Z,12.71
2023-05-04T23:23:58.233Z,12.68
2023-05-04T23:27:00.132Z,12.68
2023-05-04T23:30:02.041Z,12.66
2023-05-04T23:33:04.021Z,12.64
2023-05-04T23:36:06.528Z,12.64
2023-05-04T23:39:08.660Z,12.63
2023-05-04T23:42:10.608Z,12.61
2023-05-04T23:45:12.447Z,12.57
2023-05-04T23:48:14.316Z,12.56
2023-05-04T23:51:16.100Z,12.48
2023-05-04T23:54:18.035Z,12.46
2023-05-04T23:57:19.893Z,12.41
